sensor_id;sensor_type;location;lat;lon;timestamp;temperature;humidity
5850;DHT22;2951;47.712;9.400;2024-02-14T00:02:16;2.60;99.90
5850;DHT22;2951;47.712;9.400;2024-02-14T00:04:44;2.70;99.90
5850;DHT22;2951;47.712;9.400;2024-02-14T00:07:11;2.60;99.90
5850;DHT22;2951;47.712;9.400;2024-02-14T00:09:38;2.60;99.90
5850;DHT22;2951;47.712;9.400;2024-02-14T00:12:04;2.50;99.90
5850;DHT22;2951;47.712;9.400;2024-02-14T00:14:31;2.50;99.90
5850;DHT22;2951;47.712;9.400;2024-02-14T00:16:58;2.60;99.90
5850;DHT22;2951;47.712;9.400;2024-02-14T00:19:27;2.60;99.90
5850;DHT22;2951;47.712;9.400;2024-02-14T00:21:54;2.60;99.90
5850;DHT22;2951;47.712;9.400;2024-02-14T00:24:20;2.50;99.90
5850;DHT22;2951;47.712;9.400;2024-02-14T00:26:50;2.60;99.90
5850;DHT22;2951;47.712;9.400;2024-02-14T00:29:17;2.70;99.90
5850;DHT22;2951;47.712;9.400;2024-02-14T00:31:44;2.40;99.90
5850;DHT22;2951;47.712;9.400;2024-02-14T00:34:11;2.30;99.90
5850;DHT22;2951;47.712;9.400;2024-02-14T00:36:38;2.30;99.90
5850;DHT22;2951;47.712;9.400;2024-02-14T00:39:07;2.50;99.90
5850;DHT22;2951;47.712;9.400;2024-02-14T00:41:38;2.60;99.90
5850;DHT22;2951;47.712;9.400;2024-02-14T00:44:04;2.70;99.90
5850;DHT22;2951;47.712;9.400;2024-02-14T00:46:31;2.70;99.90
5850;DHT22;2951;47.712;9.400;2024-02-14T00:48:59;2.80;99.90
5850;DHT22;2951;47.712;9.400;2024-02-14T00:51:26;2.80;99.90
5850;DHT22;2951;47.712;9.400;2024-02-14T00:53:53;2.90;99.90
5850;DHT22;2951;47.712;9.400;2024-02-14T00:56:20;2.80;99.90
5850;DHT22;2951;47.712;9.400;2024-02-14T00:58:47;2.80;99.90
5850;DHT22;2951;47.712;9.400;2024-02-14T01:01:13;2.80;99.90
5850;DHT22;2951;47.712;9.400;2024-02-14T01:03:42;2.80;99.90
5850;DHT22;2951;47.712;9.400;2024-02-14T01:06:09;2.90;99.90
5850;DHT22;2951;47.712;9.400;2024-02-14T01:08:35;2.80;99.90
5850;DHT22;2951;47.712;9.400;2024-02-14T01:11:03;2.80;99.90
5850;DHT22;2951;47.712;9.400;2024-02-14T01:13:31;2.80;99.90
5850;DHT22;2951;47.712;9.400;2024-02-14T01:15:57;2.90;99.90
5850;DHT22;2951;47.712;9.400;2024-02-14T01:18:24;3.00;99.90
5850;DHT22;2951;47.712;9.400;2024-02-14T01:20:51;3.00;99.90
5850;DHT22;2951;47.712;9.400;2024-02-14T01:23:18;3.10;99.90
5850;DHT22;2951;47.712;9.400;2024-02-14T01:25:47;3.10;99.90
5850;DHT22;2951;47.712;9.400;2024-02-14T01:28:14;3.20;99.90
5850;DHT22;2951;47.712;9.400;2024-02-14T01:30:41;3.30;99.90
5850;DHT22;2951;47.712;9.400;2024-02-14T01:33:11;2.90;99.90
5850;DHT22;2951;47.712;9.400;2024-02-14T01:35:41;2.80;99.90
5850;DHT22;2951;47.712;9.400;2024-02-14T01:38:09;2.80;99.90
5850;DHT22;2951;47.712;9.400;2024-02-14T01:40:36;3.00;99.90
5850;DHT22;2951;47.712;9.400;2024-02-14T01:43:02;3.10;99.90
5850;DHT22;2951;47.712;9.400;2024-02-14T01:45:29;3.10;99.90
5850;DHT22;2951;47.712;9.400;2024-02-14T01:47:57;3.10;99.90
5850;DHT22;2951;47.712;9.400;2024-02-14T01:50:23;3.20;99.90
5850;DHT22;2951;47.712;9.400;2024-02-14T01:52:58;3.30;99.90
5850;DHT22;2951;47.712;9.400;2024-02-14T01:55:26;3.10;99.90
5850;DHT22;2951;47.712;9.400;2024-02-14T01:57:54;3.20;99.90
5850;DHT22;2951;47.712;9.400;2024-02-14T02:00:20;3.20;99.90
5850;DHT22;2951;47.712;9.400;2024-02-14T02:02:47;3.30;99.90
5850;DHT22;2951;47.712;9.400;2024-02-14T02:05:14;3.30;99.90
5850;DHT22;2951;47.712;9.400;2024-02-14T02:07:42;3.20;99.90
5850;DHT22;2951;47.712;9.400;2024-02-14T02:10:12;3.30;99.90
5850;DHT22;2951;47.712;9.400;2024-02-14T02:12:39;3.30;99.90
5850;DHT22;2951;47.712;9.400;2024-02-14T02:15:06;3.40;99.90
5850;DHT22;2951;47.712;9.400;2024-02-14T02:17:33;3.50;99.90
5850;DHT22;2951;47.712;9.400;2024-02-14T02:20:00;3.60;99.90
5850;DHT22;2951;47.712;9.400;2024-02-14T02:22:28;3.30;99.90
5850;DHT22;2951;47.712;9.400;2024-02-14T02:24:58;3.20;99.90
5850;DHT22;2951;47.712;9.400;2024-02-14T02:27:25;3.20;99.90
5850;DHT22;2951;47.712;9.400;2024-02-14T02:29:52;3.30;99.90
5850;DHT22;2951;47.712;9.400;2024-02-14T02:32:19;3.40;99.90
5850;DHT22;2951;47.712;9.400;2024-02-14T02:34:45;3.40;99.90
5850;DHT22;2951;47.712;9.400;2024-02-14T02:37:12;3.50;99.90
5850;DHT22;2951;47.712;9.400;2024-02-14T02:39:40;3.50;99.90
5850;DHT22;2951;47.712;9.400;2024-02-14T02:42:06;3.40;99.90
5850;DHT22;2951;47.712;9.400;2024-02-14T02:44:33;3.50;99.90
5850;DHT22;2951;47.712;9.400;2024-02-14T02:47:02;3.50;99.90
5850;DHT22;2951;47.712;9.400;2024-02-14T02:49:29;3.50;99.90
5850;DHT22;2951;47.712;9.400;2024-02-14T02:51:56;3.50;99.90
5850;DHT22;2951;47.712;9.400;2024-02-14T02:54:22;3.40;99.90
5850;DHT22;2951;47.712;9.400;2024-02-14T02:56:50;3.40;99.90
5850;DHT22;2951;47.712;9.400;2024-02-14T02:59:16;3.40;99.90
5850;DHT22;2951;47.712;9.400;2024-02-14T03:01:43;3.40;99.90
5850;DHT22;2951;47.712;9.400;2024-02-14T03:04:11;3.30;99.90
5850;DHT22;2951;47.712;9.400;2024-02-14T03:06:40;3.30;99.90
5850;DHT22;2951;47.712;9.400;2024-02-14T03:09:06;3.30;99.90
5850;DHT22;2951;47.712;9.400;2024-02-14T03:11:34;3.20;99.90
5850;DHT22;2951;47.712;9.400;2024-02-14T03:14:02;3.10;99.90
5850;DHT22;2951;47.712;9.400;2024-02-14T03:16:29;3.10;99.90
5850;DHT22;2951;47.712;9.400;2024-02-14T03:18:56;3.10;99.90
5850;DHT22;2951;47.712;9.400;2024-02-14T03:21:23;3.10;99.90
5850;DHT22;2951;47.712;9.400;2024-02-14T03:23:50;3.20;99.90
5850;DHT22;2951;47.712;9.400;2024-02-14T03:26:16;3.10;99.90
5850;DHT22;2951;47.712;9.400;2024-02-14T03:28:43;3.00;99.90
5850;DHT22;2951;47.712;9.400;2024-02-14T03:31:11;3.00;99.90
5850;DHT22;2951;47.712;9.400;2024-02-14T03:33:42;2.90;99.90
5850;DHT22;2951;47.712;9.400;2024-02-14T03:36:08;2.70;99.90
5850;DHT22;2951;47.712;9.400;2024-02-14T03:38:38;2.70;99.90
5850;DHT22;2951;47.712;9.400;2024-02-14T03:41:06;2.50;99.90
5850;DHT22;2951;47.712;9.400;2024-02-14T03:43:33;2.50;99.90
5850;DHT22;2951;47.712;9.400;2024-02-14T03:46:00;2.40;99.90
5850;DHT22;2951;47.712;9.400;2024-02-14T03:48:27;2.50;99.90
5850;DHT22;2951;47.712;9.400;2024-02-14T03:50:54;2.50;99.90
5850;DHT22;2951;47.712;9.400;2024-02-14T03:53:21;2.60;99.90
5850;DHT22;2951;47.712;9.400;2024-02-14T03:55:48;2.50;99.90
5850;DHT22;2951;47.712;9.400;2024-02-14T03:58:15;2.40;99.90
5850;DHT22;2951;47.712;9.400;2024-02-14T04:00:45;2.50;99.90
5850;DHT22;2951;47.712;9.400;2024-02-14T04:03:15;2.70;99.90
5850;DHT22;2951;47.712;9.400;2024-02-14T04:05:41;2.80;99.90
5850;DHT22;2951;47.712;9.400;2024-02-14T04:08:08;2.80;99.90
5850;DHT22;2951;47.712;9.400;2024-02-14T04:10:37;2.90;99.90
5850;DHT22;2951;47.712;9.400;2024-02-14T04:13:04;2.90;99.90
5850;DHT22;2951;47.712;9.400;2024-02-14T04:15:32;3.00;99.90
5850;DHT22;2951;47.712;9.400;2024-02-14T04:17:59;3.10;99.90
5850;DHT22;2951;47.712;9.400;2024-02-14T04:20:32;3.10;99.90
5850;DHT22;2951;47.712;9.400;2024-02-14T04:22:58;3.20;99.90
5850;DHT22;2951;47.712;9.400;2024-02-14T04:25:25;3.20;99.90
5850;DHT22;2951;47.712;9.400;2024-02-14T04:27:52;3.20;99.90
5850;DHT22;2951;47.712;9.400;2024-02-14T04:30:20;3.20;99.90
5850;DHT22;2951;47.712;9.400;2024-02-14T04:32:47;3.20;99.90
5850;DHT22;2951;47.712;9.400;2024-02-14T04:35:15;3.20;99.90
5850;DHT22;2951;47.712;9.400;2024-02-14T04:37:42;3.30;99.90
5850;DHT22;2951;47.712;9.400;2024-02-14T04:40:12;2.90;99.90
5850;DHT22;2951;47.712;9.400;2024-02-14T04:42:39;3.00;99.90
5850;DHT22;2951;47.712;9.400;2024-02-14T04:45:07;3.20;99.90
5850;DHT22;2951;47.712;9.400;2024-02-14T04:47:35;3.30;99.90
5850;DHT22;2951;47.712;9.400;2024-02-14T04:50:02;3.30;99.90
5850;DHT22;2951;47.712;9.400;2024-02-14T04:52:31;3.40;99.90
5850;DHT22;2951;47.712;9.400;2024-02-14T04:54:58;3.30;99.90
5850;DHT22;2951;47.712;9.400;2024-02-14T04:57:24;3.40;99.90
5850;DHT22;2951;47.712;9.400;2024-02-14T04:59:52;3.40;99.90
5850;DHT22;2951;47.712;9.400;2024-02-14T05:02:18;3.40;99.90
5850;DHT22;2951;47.712;9.400;2024-02-14T05:04:45;3.40;99.90
5850;DHT22;2951;47.712;9.400;2024-02-14T05:07:12;3.40;99.90
5850;DHT22;2951;47.712;9.400;2024-02-14T05:09:38;3.30;99.90
5850;DHT22;2951;47.712;9.400;2024-02-14T05:12:05;3.40;99.90
5850;DHT22;2951;47.712;9.400;2024-02-14T05:14:37;3.40;99.90
5850;DHT22;2951;47.712;9.400;2024-02-14T05:17:03;3.40;99.90
5850;DHT22;2951;47.712;9.400;2024-02-14T05:19:31;3.40;99.90
5850;DHT22;2951;47.712;9.400;2024-02-14T05:21:58;3.50;99.90
5850;DHT22;2951;47.712;9.400;2024-02-14T05:24:29;3.50;99.90
5850;DHT22;2951;47.712;9.400;2024-02-14T05:26:57;3.30;99.90
5850;DHT22;2951;47.712;9.400;2024-02-14T05:29:24;3.40;99.90
5850;DHT22;2951;47.712;9.400;2024-02-14T05:31:51;3.40;99.90
5850;DHT22;2951;47.712;9.400;2024-02-14T05:34:21;3.50;99.90
5850;DHT22;2951;47.712;9.400;2024-02-14T05:36:54;3.70;99.90
5850;DHT22;2951;47.712;9.400;2024-02-14T05:39:21;3.80;99.90
5850;DHT22;2951;47.712;9.400;2024-02-14T05:41:48;3.90;99.90
5850;DHT22;2951;47.712;9.400;2024-02-14T05:44:15;4.10;99.90
5850;DHT22;2951;47.712;9.400;2024-02-14T05:46:42;4.10;99.90
5850;DHT22;2951;47.712;9.400;2024-02-14T05:49:09;4.10;99.90
5850;DHT22;2951;47.712;9.400;2024-02-14T05:51:36;4.00;99.90
5850;DHT22;2951;47.712;9.400;2024-02-14T05:54:03;3.70;99.90
5850;DHT22;2951;47.712;9.400;2024-02-14T05:56:30;3.60;99.90
5850;DHT22;2951;47.712;9.400;2024-02-14T05:58:57;3.60;99.90
5850;DHT22;2951;47.712;9.400;2024-02-14T06:01:24;3.70;99.90
5850;DHT22;2951;47.712;9.400;2024-02-14T06:03:51;3.80;99.90
5850;DHT22;2951;47.712;9.400;2024-02-14T06:06:20;4.00;99.90
5850;DHT22;2951;47.712;9.400;2024-02-14T06:08:47;4.00;99.90
5850;DHT22;2951;47.712;9.400;2024-02-14T06:11:14;4.10;99.90
5850;DHT22;2951;47.712;9.400;2024-02-14T06:13:42;4.10;99.90
5850;DHT22;2951;47.712;9.400;2024-02-14T06:16:10;4.10;99.90
5850;DHT22;2951;47.712;9.400;2024-02-14T06:18:38;4.20;99.90
5850;DHT22;2951;47.712;9.400;2024-02-14T06:21:06;4.30;99.90
5850;DHT22;2951;47.712;9.400;2024-02-14T06:23:33;4.30;99.90
5850;DHT22;2951;47.712;9.400;2024-02-14T06:26:00;4.30;99.90
5850;DHT22;2951;47.712;9.400;2024-02-14T06:28:27;4.30;99.90
5850;DHT22;2951;47.712;9.400;2024-02-14T06:30:54;4.20;99.90
5850;DHT22;2951;47.712;9.400;2024-02-14T06:33:21;4.20;99.90
5850;DHT22;2951;47.712;9.400;2024-02-14T06:35:48;4.20;99.90
5850;DHT22;2951;47.712;9.400;2024-02-14T06:38:19;4.30;99.90
5850;DHT22;2951;47.712;9.400;2024-02-14T06:40:46;4.10;99.90
5850;DHT22;2951;47.712;9.400;2024-02-14T06:43:13;4.10;99.90
5850;DHT22;2951;47.712;9.400;2024-02-14T06:45:40;4.10;99.90
5850;DHT22;2951;47.712;9.400;2024-02-14T06:48:07;4.10;99.90
5850;DHT22;2951;47.712;9.400;2024-02-14T06:50:35;4.20;99.90
5850;DHT22;2951;47.712;9.400;2024-02-14T06:53:01;4.20;99.90
5850;DHT22;2951;47.712;9.400;2024-02-14T06:55:29;4.40;99.90
5850;DHT22;2951;47.712;9.400;2024-02-14T06:57:59;4.40;99.90
5850;DHT22;2951;47.712;9.400;2024-02-14T07:00:26;4.50;99.90
5850;DHT22;2951;47.712;9.400;2024-02-14T07:02:54;4.50;99.90
5850;DHT22;2951;47.712;9.400;2024-02-14T07:05:21;4.50;99.90
5850;DHT22;2951;47.712;9.400;2024-02-14T07:07:48;4.50;99.90
5850;DHT22;2951;47.712;9.400;2024-02-14T07:10:15;4.50;99.90
5850;DHT22;2951;47.712;9.400;2024-02-14T07:12:44;4.40;99.90
5850;DHT22;2951;47.712;9.400;2024-02-14T07:15:10;4.40;99.90
5850;DHT22;2951;47.712;9.400;2024-02-14T07:17:37;4.40;99.90
5850;DHT22;2951;47.712;9.400;2024-02-14T07:20:07;4.50;99.90
5850;DHT22;2951;47.712;9.400;2024-02-14T07:22:37;4.60;99.90
5850;DHT22;2951;47.712;9.400;2024-02-14T07:25:04;4.70;99.90
5850;DHT22;2951;47.712;9.400;2024-02-14T07:27:31;4.80;99.90
5850;DHT22;2951;47.712;9.400;2024-02-14T07:29:58;4.90;99.90
5850;DHT22;2951;47.712;9.400;2024-02-14T07:32:25;4.90;99.90
5850;DHT22;2951;47.712;9.400;2024-02-14T07:34:52;5.10;99.90
5850;DHT22;2951;47.712;9.400;2024-02-14T07:40:15;5.50;99.90
5850;DHT22;2951;47.712;9.400;2024-02-14T07:42:44;5.70;99.90
5850;DHT22;2951;47.712;9.400;2024-02-14T07:45:10;5.90;99.90
5850;DHT22;2951;47.712;9.400;2024-02-14T07:47:38;5.90;99.90
5850;DHT22;2951;47.712;9.400;2024-02-14T07:50:07;6.00;99.90
5850;DHT22;2951;47.712;9.400;2024-02-14T07:52:33;6.10;99.90
5850;DHT22;2951;47.712;9.400;2024-02-14T07:55:02;6.10;99.90
5850;DHT22;2951;47.712;9.400;2024-02-14T07:57:29;6.10;99.90
5850;DHT22;2951;47.712;9.400;2024-02-14T07:59:56;6.00;99.90
5850;DHT22;2951;47.712;9.400;2024-02-14T08:02:22;6.00;99.90
5850;DHT22;2951;47.712;9.400;2024-02-14T08:04:49;5.90;99.90
5850;DHT22;2951;47.712;9.400;2024-02-14T08:07:18;5.90;99.90
5850;DHT22;2951;47.712;9.400;2024-02-14T08:09:51;6.00;99.90
5850;DHT22;2951;47.712;9.400;2024-02-14T08:12:18;6.10;99.90
5850;DHT22;2951;47.712;9.400;2024-02-14T08:14:44;6.30;99.90
5850;DHT22;2951;47.712;9.400;2024-02-14T08:17:11;6.50;99.90
5850;DHT22;2951;47.712;9.400;2024-02-14T08:19:38;6.60;99.90
5850;DHT22;2951;47.712;9.400;2024-02-14T08:22:05;6.80;99.90
5850;DHT22;2951;47.712;9.400;2024-02-14T08:24:33;7.00;99.90
5850;DHT22;2951;47.712;9.400;2024-02-14T08:27:00;7.30;99.90
5850;DHT22;2951;47.712;9.400;2024-02-14T08:29:27;7.60;99.90
5850;DHT22;2951;47.712;9.400;2024-02-14T08:31:56;7.70;99.90
5850;DHT22;2951;47.712;9.400;2024-02-14T08:34:23;7.90;99.90
5850;DHT22;2951;47.712;9.400;2024-02-14T08:36:50;7.90;99.90
5850;DHT22;2951;47.712;9.400;2024-02-14T08:39:17;8.00;99.90
5850;DHT22;2951;47.712;9.400;2024-02-14T08:41:44;8.10;99.90
5850;DHT22;2951;47.712;9.400;2024-02-14T08:44:11;8.10;99.90
5850;DHT22;2951;47.712;9.400;2024-02-14T08:46:39;8.10;99.90
5850;DHT22;2951;47.712;9.400;2024-02-14T08:49:05;8.00;99.90
5850;DHT22;2951;47.712;9.400;2024-02-14T08:51:37;8.00;99.90
5850;DHT22;2951;47.712;9.400;2024-02-14T08:54:04;8.00;99.90
5850;DHT22;2951;47.712;9.400;2024-02-14T08:56:33;8.10;99.90
5850;DHT22;2951;47.712;9.400;2024-02-14T08:59:01;8.20;99.90
5850;DHT22;2951;47.712;9.400;2024-02-14T09:01:29;8.20;99.90
5850;DHT22;2951;47.712;9.400;2024-02-14T09:03:56;8.20;99.90
5850;DHT22;2951;47.712;9.400;2024-02-14T09:06:23;8.40;99.90
5850;DHT22;2951;47.712;9.400;2024-02-14T09:08:50;8.60;99.90
5850;DHT22;2951;47.712;9.400;2024-02-14T09:11:17;8.90;99.90
5850;DHT22;2951;47.712;9.400;2024-02-14T09:13:44;9.00;99.90
5850;DHT22;2951;47.712;9.400;2024-02-14T09:16:34;9.20;99.90
5850;DHT22;2951;47.712;9.400;2024-02-14T09:19:01;9.30;99.90
5850;DHT22;2951;47.712;9.400;2024-02-14T09:21:28;9.40;99.90
5850;DHT22;2951;47.712;9.400;2024-02-14T09:23:55;9.50;99.90
5850;DHT22;2951;47.712;9.400;2024-02-14T09:26:22;9.80;99.90
5850;DHT22;2951;47.712;9.400;2024-02-14T09:28:49;10.10;99.90
5850;DHT22;2951;47.712;9.400;2024-02-14T09:31:19;10.30;99.90
5850;DHT22;2951;47.712;9.400;2024-02-14T09:33:48;10.30;99.90
5850;DHT22;2951;47.712;9.400;2024-02-14T09:36:16;10.40;99.90
5850;DHT22;2951;47.712;9.400;2024-02-14T09:38:51;10.40;99.90
5850;DHT22;2951;47.712;9.400;2024-02-14T09:41:22;10.30;99.90
5850;DHT22;2951;47.712;9.400;2024-02-14T09:43:49;10.20;99.90
5850;DHT22;2951;47.712;9.400;2024-02-14T09:46:17;10.20;99.90
5850;DHT22;2951;47.712;9.400;2024-02-14T09:48:46;10.30;99.90
5850;DHT22;2951;47.712;9.400;2024-02-14T09:51:13;10.10;99.90
5850;DHT22;2951;47.712;9.400;2024-02-14T09:53:40;10.40;99.90
5850;DHT22;2951;47.712;9.400;2024-02-14T09:56:11;10.60;99.90
5850;DHT22;2951;47.712;9.400;2024-02-14T09:58:39;10.70;99.90
5850;DHT22;2951;47.712;9.400;2024-02-14T10:01:06;10.80;99.90
5850;DHT22;2951;47.712;9.400;2024-02-14T10:03:33;10.90;99.90
5850;DHT22;2951;47.712;9.400;2024-02-14T10:06:02;10.90;99.90
5850;DHT22;2951;47.712;9.400;2024-02-14T10:08:29;10.90;99.90
5850;DHT22;2951;47.712;9.400;2024-02-14T10:10:57;10.90;99.90
5850;DHT22;2951;47.712;9.400;2024-02-14T10:13:27;10.90;99.90
5850;DHT22;2951;47.712;9.400;2024-02-14T10:15:55;10.90;99.90
5850;DHT22;2951;47.712;9.400;2024-02-14T10:18:23;10.70;99.90
5850;DHT22;2951;47.712;9.400;2024-02-14T10:20:56;10.80;99.90
5850;DHT22;2951;47.712;9.400;2024-02-14T10:23:23;10.70;99.90
5850;DHT22;2951;47.712;9.400;2024-02-14T10:25:52;11.00;99.90
5850;DHT22;2951;47.712;9.400;2024-02-14T10:28:20;11.20;99.90
5850;DHT22;2951;47.712;9.400;2024-02-14T10:30:55;11.20;99.90
5850;DHT22;2951;47.712;9.400;2024-02-14T10:33:22;11.30;99.90
5850;DHT22;2951;47.712;9.400;2024-02-14T10:35:53;11.20;99.90
5850;DHT22;2951;47.712;9.400;2024-02-14T10:38:26;11.50;99.90
5850;DHT22;2951;47.712;9.400;2024-02-14T10:40:53;11.50;99.90
5850;DHT22;2951;47.712;9.400;2024-02-14T10:43:20;11.70;99.90
5850;DHT22;2951;47.712;9.400;2024-02-14T10:45:47;11.60;99.90
5850;DHT22;2951;47.712;9.400;2024-02-14T10:48:15;11.80;99.90
5850;DHT22;2951;47.712;9.400;2024-02-14T10:50:43;11.60;99.90
5850;DHT22;2951;47.712;9.400;2024-02-14T10:53:14;11.80;99.90
5850;DHT22;2951;47.712;9.400;2024-02-14T10:55:44;11.80;99.90
5850;DHT22;2951;47.712;9.400;2024-02-14T10:58:12;11.90;99.90
5850;DHT22;2951;47.712;9.400;2024-02-14T11:00:41;12.30;99.90
5850;DHT22;2951;47.712;9.400;2024-02-14T11:03:08;12.50;99.90
5850;DHT22;2951;47.712;9.400;2024-02-14T11:05:46;12.50;99.90
5850;DHT22;2951;47.712;9.400;2024-02-14T11:08:13;12.50;99.90
5850;DHT22;2951;47.712;9.400;2024-02-14T11:10:40;12.50;99.90
5850;DHT22;2951;47.712;9.400;2024-02-14T11:13:12;12.60;99.90
5850;DHT22;2951;47.712;9.400;2024-02-14T11:15:40;12.30;99.90
5850;DHT22;2951;47.712;9.400;2024-02-14T11:18:11;12.30;99.90
5850;DHT22;2951;47.712;9.400;2024-02-14T11:20:37;12.30;99.90
5850;DHT22;2951;47.712;9.400;2024-02-14T11:23:07;12.30;99.90
5850;DHT22;2951;47.712;9.400;2024-02-14T11:25:38;12.30;99.90
5850;DHT22;2951;47.712;9.400;2024-02-14T11:28:14;12.50;99.90
5850;DHT22;2951;47.712;9.400;2024-02-14T11:30:41;12.20;99.90
5850;DHT22;2951;47.712;9.400;2024-02-14T11:35:42;12.10;99.90
5850;DHT22;2951;47.712;9.400;2024-02-14T11:38:12;11.90;99.90
5850;DHT22;2951;47.712;9.400;2024-02-14T11:40:40;12.00;99.90
5850;DHT22;2951;47.712;9.400;2024-02-14T11:43:11;12.20;99.90
5850;DHT22;2951;47.712;9.400;2024-02-14T11:45:38;12.30;99.90
5850;DHT22;2951;47.712;9.400;2024-02-14T11:48:09;12.70;99.90
5850;DHT22;2951;47.712;9.400;2024-02-14T11:50:36;12.70;99.90
5850;DHT22;2951;47.712;9.400;2024-02-14T11:53:03;12.70;99.90
5850;DHT22;2951;47.712;9.400;2024-02-14T11:55:30;12.50;99.90
5850;DHT22;2951;47.712;9.400;2024-02-14T11:57:58;12.60;99.90
5850;DHT22;2951;47.712;9.400;2024-02-14T12:00:25;12.80;99.90
5850;DHT22;2951;47.712;9.400;2024-02-14T12:02:52;12.80;99.90
5850;DHT22;2951;47.712;9.400;2024-02-14T12:05:19;13.00;99.90
5850;DHT22;2951;47.712;9.400;2024-02-14T12:07:47;13.10;99.90
5850;DHT22;2951;47.712;9.400;2024-02-14T12:10:14;13.20;99.90
5850;DHT22;2951;47.712;9.400;2024-02-14T12:12:40;13.00;99.90
5850;DHT22;2951;47.712;9.400;2024-02-14T12:15:11;13.10;99.90
5850;DHT22;2951;47.712;9.400;2024-02-14T12:17:37;13.20;99.90
5850;DHT22;2951;47.712;9.400;2024-02-14T12:20:07;13.20;99.90
5850;DHT22;2951;47.712;9.400;2024-02-14T12:22:36;13.10;99.90
5850;DHT22;2951;47.712;9.400;2024-02-14T12:25:05;13.40;99.90
5850;DHT22;2951;47.712;9.400;2024-02-14T12:27:35;13.30;99.90
5850;DHT22;2951;47.712;9.400;2024-02-14T12:30:06;13.50;99.90
5850;DHT22;2951;47.712;9.400;2024-02-14T12:32:34;13.60;99.90
5850;DHT22;2951;47.712;9.400;2024-02-14T12:35:01;13.60;99.90
5850;DHT22;2951;47.712;9.400;2024-02-14T12:37:33;13.90;99.90
5850;DHT22;2951;47.712;9.400;2024-02-14T12:40:01;13.70;99.90
5850;DHT22;2951;47.712;9.400;2024-02-14T12:42:32;13.70;99.90
5850;DHT22;2951;47.712;9.400;2024-02-14T12:44:59;13.70;99.90
5850;DHT22;2951;47.712;9.400;2024-02-14T12:47:26;13.80;99.90
5850;DHT22;2951;47.712;9.400;2024-02-14T12:49:58;13.70;99.90
5850;DHT22;2951;47.712;9.400;2024-02-14T12:52:26;13.50;99.90
5850;DHT22;2951;47.712;9.400;2024-02-14T12:54:52;13.50;99.90
5850;DHT22;2951;47.712;9.400;2024-02-14T12:57:20;13.40;99.90
5850;DHT22;2951;47.712;9.400;2024-02-14T12:59:48;13.30;99.90
5850;DHT22;2951;47.712;9.400;2024-02-14T13:02:15;13.10;99.90
5850;DHT22;2951;47.712;9.400;2024-02-14T13:04:43;13.10;99.90
5850;DHT22;2951;47.712;9.400;2024-02-14T13:07:10;13.10;99.90
5850;DHT22;2951;47.712;9.400;2024-02-14T13:09:36;13.20;99.90
5850;DHT22;2951;47.712;9.400;2024-02-14T13:12:04;13.20;99.90
5850;DHT22;2951;47.712;9.400;2024-02-14T13:14:33;13.30;99.90
5850;DHT22;2951;47.712;9.400;2024-02-14T13:17:00;13.40;99.90
5850;DHT22;2951;47.712;9.400;2024-02-14T13:19:27;13.50;99.90
5850;DHT22;2951;47.712;9.400;2024-02-14T13:21:54;13.30;99.90
5850;DHT22;2951;47.712;9.400;2024-02-14T13:24:21;13.50;99.90
5850;DHT22;2951;47.712;9.400;2024-02-14T13:26:50;13.50;99.90
5850;DHT22;2951;47.712;9.400;2024-02-14T13:29:17;13.70;99.90
5850;DHT22;2951;47.712;9.400;2024-02-14T13:31:44;13.50;99.90
5850;DHT22;2951;47.712;9.400;2024-02-14T13:34:10;13.50;99.90
5850;DHT22;2951;47.712;9.400;2024-02-14T13:36:38;13.50;99.90
5850;DHT22;2951;47.712;9.400;2024-02-14T13:39:11;13.60;99.90
5850;DHT22;2951;47.712;9.400;2024-02-14T13:41:41;13.60;99.90
5850;DHT22;2951;47.712;9.400;2024-02-14T13:44:10;13.70;99.90
5850;DHT22;2951;47.712;9.400;2024-02-14T13:46:37;13.70;99.90
5850;DHT22;2951;47.712;9.400;2024-02-14T13:49:04;13.70;99.90
5850;DHT22;2951;47.712;9.400;2024-02-14T13:51:31;13.80;99.90
5850;DHT22;2951;47.712;9.400;2024-02-14T13:53:58;13.90;99.90
5850;DHT22;2951;47.712;9.400;2024-02-14T13:56:25;14.00;99.90
5850;DHT22;2951;47.712;9.400;2024-02-14T13:58:53;14.00;99.90
5850;DHT22;2951;47.712;9.400;2024-02-14T14:01:19;14.20;99.90
5850;DHT22;2951;47.712;9.400;2024-02-14T14:03:46;14.10;99.90
5850;DHT22;2951;47.712;9.400;2024-02-14T14:06:15;14.00;99.90
5850;DHT22;2951;47.712;9.400;2024-02-14T14:08:41;14.00;99.90
5850;DHT22;2951;47.712;9.400;2024-02-14T14:11:08;13.60;99.90
5850;DHT22;2951;47.712;9.400;2024-02-14T14:13:35;13.70;99.90
5850;DHT22;2951;47.712;9.400;2024-02-14T14:16:02;13.80;99.90
5850;DHT22;2951;47.712;9.400;2024-02-14T14:18:32;14.00;99.90
5850;DHT22;2951;47.712;9.400;2024-02-14T14:20:59;14.10;99.90
5850;DHT22;2951;47.712;9.400;2024-02-14T14:23:25;14.10;99.90
5850;DHT22;2951;47.712;9.400;2024-02-14T14:25:53;14.10;99.90
5850;DHT22;2951;47.712;9.400;2024-02-14T14:28:20;14.40;99.90
5850;DHT22;2951;47.712;9.400;2024-02-14T14:30:51;15.00;99.90
5850;DHT22;2951;47.712;9.400;2024-02-14T14:33:18;14.80;99.90
5850;DHT22;2951;47.712;9.400;2024-02-14T14:35:45;14.80;99.90
5850;DHT22;2951;47.712;9.400;2024-02-14T14:38:24;16.10;99.90
5850;DHT22;2951;47.712;9.400;2024-02-14T14:40:53;16.70;99.90
5850;DHT22;2951;47.712;9.400;2024-02-14T14:43:22;17.40;99.90
5850;DHT22;2951;47.712;9.400;2024-02-14T14:45:49;17.60;99.90
5850;DHT22;2951;47.712;9.400;2024-02-14T14:48:18;17.10;99.90
5850;DHT22;2951;47.712;9.400;2024-02-14T14:50:45;16.60;99.90
5850;DHT22;2951;47.712;9.400;2024-02-14T14:53:12;15.80;99.90
5850;DHT22;2951;47.712;9.400;2024-02-14T14:55:57;15.40;99.90
5850;DHT22;2951;47.712;9.400;2024-02-14T14:58:24;15.00;99.90
5850;DHT22;2951;47.712;9.400;2024-02-14T15:00:54;14.40;99.90
5850;DHT22;2951;47.712;9.400;2024-02-14T15:03:27;14.10;99.90
5850;DHT22;2951;47.712;9.400;2024-02-14T15:05:58;13.60;99.90
5850;DHT22;2951;47.712;9.400;2024-02-14T15:08:25;13.10;99.90
5850;DHT22;2951;47.712;9.400;2024-02-14T15:10:53;12.50;99.90
5850;DHT22;2951;47.712;9.400;2024-02-14T15:13:22;12.10;99.90
5850;DHT22;2951;47.712;9.400;2024-02-14T15:15:49;12.00;99.90
5850;DHT22;2951;47.712;9.400;2024-02-14T15:18:15;11.60;99.90
5850;DHT22;2951;47.712;9.400;2024-02-14T15:20:42;11.70;99.90
5850;DHT22;2951;47.712;9.400;2024-02-14T15:23:09;11.40;99.90
5850;DHT22;2951;47.712;9.400;2024-02-14T15:25:36;11.30;99.90
5850;DHT22;2951;47.712;9.400;2024-02-14T15:28:09;11.40;99.90
5850;DHT22;2951;47.712;9.400;2024-02-14T15:30:40;11.50;99.90
5850;DHT22;2951;47.712;9.400;2024-02-14T15:33:26;11.50;99.90
5850;DHT22;2951;47.712;9.400;2024-02-14T15:35:55;11.40;99.90
5850;DHT22;2951;47.712;9.400;2024-02-14T15:38:31;11.30;99.90
5850;DHT22;2951;47.712;9.400;2024-02-14T15:40:57;11.20;99.90
5850;DHT22;2951;47.712;9.400;2024-02-14T15:43:27;11.10;99.90
5850;DHT22;2951;47.712;9.400;2024-02-14T15:45:55;10.90;99.90
5850;DHT22;2951;47.712;9.400;2024-02-14T15:48:23;10.90;99.90
5850;DHT22;2951;47.712;9.400;2024-02-14T15:50:55;10.90;99.90
5850;DHT22;2951;47.712;9.400;2024-02-14T15:53:24;10.70;99.90
5850;DHT22;2951;47.712;9.400;2024-02-14T15:55:53;10.80;99.90
5850;DHT22;2951;47.712;9.400;2024-02-14T15:58:20;10.80;99.90
5850;DHT22;2951;47.712;9.400;2024-02-14T16:00:46;10.70;99.90
5850;DHT22;2951;47.712;9.400;2024-02-14T16:03:13;10.60;99.90
5850;DHT22;2951;47.712;9.400;2024-02-14T16:05:40;10.50;99.90
5850;DHT22;2951;47.712;9.400;2024-02-14T16:08:15;10.60;99.90
5850;DHT22;2951;47.712;9.400;2024-02-14T16:10:42;10.60;99.90
5850;DHT22;2951;47.712;9.400;2024-02-14T16:13:14;10.70;99.90
5850;DHT22;2951;47.712;9.400;2024-02-14T16:15:40;10.70;99.90
5850;DHT22;2951;47.712;9.400;2024-02-14T16:18:07;10.60;99.90
5850;DHT22;2951;47.712;9.400;2024-02-14T16:20:34;10.40;99.90
5850;DHT22;2951;47.712;9.400;2024-02-14T16:23:01;10.40;99.90